Time;durP1;ratioP1;P1;durP2;ratioP2;P2;SDS_P1;SDS_P2;PMS_P1;PMS_P2;Temp;Humidity;BMP_temperature;BMP_pressure;BME280_temperature;BME280_humidity;BME280_pressure;Samples;Min_cycle;Max_cycle;Signal;HPM_P1;HPM_P2
2023/09/18 04:54:38;;;;;;;4.80;3.47;;;;;;;;;;5071644;28;20794;-82
2023/09/18 04:57:05;;;;;;;6.38;3.97;;;;;;;;;;5077564;28;20028;-80
2023/09/18 04:59:31;;;;;;;6.75;4.15;;;;;;;;;;5071284;28;20029;-81
2023/09/18 05:01:57;;;;;;;9.23;4.57;;;;;;;;;;5072246;28;20033;-86
2023/09/18 05:04:22;;;;;;;8.00;4.22;;;;;;;;;;5066877;28;20031;-84
2023/09/18 05:06:47;;;;;;;9.05;5.20;;;;;;;;;;5071954;28;20107;-83
2023/09/18 05:09:14;;;;;;;9.07;4.70;;;;;;;;;;5067020;28;20459;-82
2023/09/18 05:11:41;;;;;;;10.55;5.10;;;;;;;;;;5069018;28;20107;-84
2023/09/18 05:14:07;;;;;;;6.95;4.82;;;;;;;;;;5072482;28;20029;-85
2023/09/18 05:16:32;;;;;;;4.43;3.55;;;;;;;;;;5074647;28;20032;-86
2023/09/18 05:18:59;;;;;;;9.63;5.85;;;;;;;;;;5069681;28;20158;-87
2023/09/18 05:21:26;;;;;;;7.50;4.63;;;;;;;;;;5064388;28;20401;-86
2023/09/18 05:23:53;;;;;;;6.25;3.85;;;;;;;;;;5065543;28;20060;-87
2023/09/18 05:26:19;;;;;;;6.75;4.55;;;;;;;;;;5060171;28;20473;-88
2023/09/18 05:28:44;;;;;;;6.60;4.38;;;;;;;;;;5065589;28;20031;-85
2023/09/18 05:31:10;;;;;;;7.95;5.10;;;;;;;;;;5071134;28;20419;-88
2023/09/18 05:33:35;;;;;;;7.75;5.07;;;;;;;;;;5076186;28;20059;-86
2023/09/18 05:36:00;;;;;;;5.15;4.22;;;;;;;;;;5073197;28;20055;-86
2023/09/18 05:38:26;;;;;;;7.68;4.63;;;;;;;;;;5068124;28;20031;-86
2023/09/18 05:40:51;;;;;;;6.47;3.63;;;;;;;;;;5068672;28;20527;-87
2023/09/18 05:43:17;;;;;;;6.72;4.18;;;;;;;;;;5059479;28;20037;-87
2023/09/18 05:45:43;;;;;;;5.93;3.08;;;;;;;;;;5069003;28;20060;-87
2023/09/18 05:48:09;;;;;;;6.05;4.35;;;;;;;;;;5064130;28;20059;-86
2023/09/18 05:50:35;;;;;;;5.85;3.85;;;;;;;;;;5071506;28;20518;-86
2023/09/18 05:53:03;;;;;;;8.27;4.90;;;;;;;;;;5064577;28;20487;-87
2023/09/18 05:55:33;;;;;;;4.03;2.92;;;;;;;;;;5064581;28;20119;-87
2023/09/18 05:57:59;;;;;;;10.10;5.68;;;;;;;;;;5062612;28;20052;-88
2023/09/18 06:00:25;;;;;;;9.70;4.47;;;;;;;;;;5073874;28;20034;-88
2023/09/18 06:02:51;;;;;;;6.45;3.92;;;;;;;;;;5069405;28;20102;-88
2023/09/18 06:05:21;;;;;;;8.48;5.00;;;;;;;;;;5055987;28;20052;-87
2023/09/18 06:07:46;;;;;;;;;;;;;;;;;;5062162;28;20115;-87
2023/09/18 06:10:11;;;;;;;4.55;3.28;;;;;;;;;;5054390;28;20000;-88
2023/09/18 06:12:39;;;;;;;9.68;4.78;;;;;;;;;;5052505;28;20038;-87
2023/09/18 06:15:09;;;;;;;5.05;3.40;;;;;;;;;;5048478;28;20060;-88
2023/09/18 06:17:36;;;;;;;6.68;4.70;;;;;;;;;;5058385;28;20032;-86
2023/09/18 06:20:04;;;;;;;3.97;3.55;;;;;;;;;;5055617;28;20427;-89
2023/09/18 06:22:29;;;;;;;6.18;3.83;;;;;;;;;;5060349;28;20036;-87
2023/09/18 06:24:55;;;;;;;7.97;4.57;;;;;;;;;;5055266;28;20025;-87
2023/09/18 06:27:20;;;;;;;5.45;3.60;;;;;;;;;;5049787;28;20047;-87
2023/09/18 06:29:46;;;;;;;5.55;3.83;;;;;;;;;;5050676;28;20442;-88
2023/09/18 06:32:12;;;;;;;7.00;4.40;;;;;;;;;;5058313;28;20406;-88
2023/09/18 06:34:38;;;;;;;7.43;3.75;;;;;;;;;;5057126;28;20035;-86
2023/09/18 06:37:04;;;;;;;4.13;3.22;;;;;;;;;;5063925;28;21410;-86
2023/09/18 06:39:29;;;;;;;6.75;3.55;;;;;;;;;;5069252;28;20056;-86
2023/09/18 06:41:55;;;;;;;5.78;3.63;;;;;;;;;;5057118;28;20025;-88
2023/09/18 06:44:21;;;;;;;4.55;3.10;;;;;;;;;;5062679;28;20036;-87
2023/09/18 06:46:47;;;;;;;4.63;3.38;;;;;;;;;;5061138;28;20056;-87
2023/09/18 06:49:12;;;;;;;6.10;4.28;;;;;;;;;;5061921;28;20056;-86
2023/09/18 06:51:38;;;;;;;5.55;3.58;;;;;;;;;;5053626;28;20036;-87
2023/09/18 06:54:04;;;;;;;6.80;3.80;;;;;;;;;;5048048;28;20067;-85
2023/09/18 06:56:32;;;;;;;5.70;3.88;;;;;;;;;;5065563;28;20035;-86
2023/09/18 06:58:58;;;;;;;4.45;3.55;;;;;;;;;;5061230;28;20040;-87
2023/09/18 07:01:24;;;;;;;5.13;3.15;;;;;;;;;;5052698;28;20029;-86
2023/09/18 07:03:50;;;;;;;5.63;4.05;;;;;;;;;;5056670;28;20024;-87
2023/09/18 07:06:16;;;;;;;4.95;3.40;;;;;;;;;;5055376;28;20490;-86
2023/09/18 07:08:43;;;;;;;4.60;2.80;;;;;;;;;;5049959;28;20035;-85
2023/09/18 07:11:08;;;;;;;3.22;2.35;;;;;;;;;;5057674;28;20104;-85
2023/09/18 07:13:34;;;;;;;3.75;3.13;;;;;;;;;;5051447;28;20108;-84
2023/09/18 07:15:59;;;;;;;5.57;3.53;;;;;;;;;;5046665;28;20033;-84
2023/09/18 07:18:25;;;;;;;4.57;3.10;;;;;;;;;;5062585;28;20058;-85
2023/09/18 07:20:50;;;;;;;8.38;3.33;;;;;;;;;;5054595;28;20055;-84
2023/09/18 07:23:16;;;;;;;4.53;2.88;;;;;;;;;;5056687;28;20063;-85
2023/09/18 07:25:47;;;;;;;5.70;3.50;;;;;;;;;;5061458;28;20055;-85
2023/09/18 07:28:17;;;;;;;5.30;3.30;;;;;;;;;;5056902;28;20460;-83
2023/09/18 07:30:43;;;;;;;;;;;;;;;;;;5054061;28;20108;-80
2023/09/18 07:33:09;;;;;;;6.18;4.07;;;;;;;;;;5043879;28;19947;-79
2023/09/18 07:35:34;;;;;;;6.05;3.42;;;;;;;;;;5051312;28;20108;-79
2023/09/18 07:38:00;;;;;;;4.75;3.85;;;;;;;;;;5051281;28;20452;-80
2023/09/18 07:40:25;;;;;;;4.50;3.08;;;;;;;;;;5048977;28;20039;-80
2023/09/18 07:42:51;;;;;;;6.13;3.63;;;;;;;;;;5051694;28;20028;-81
2023/09/18 07:45:18;;;;;;;5.05;3.38;;;;;;;;;;5052241;28;20021;-80
2023/09/18 07:47:43;;;;;;;3.75;2.42;;;;;;;;;;5050668;28;20097;-80
2023/09/18 07:50:09;;;;;;;7.10;4.35;;;;;;;;;;5052532;28;20025;-80
2023/09/18 07:52:35;;;;;;;8.63;3.72;;;;;;;;;;5053766;28;20404;-84
2023/09/18 07:55:01;;;;;;;5.40;3.03;;;;;;;;;;5058670;28;20039;-86
2023/09/18 07:57:31;;;;;;;3.67;2.78;;;;;;;;;;5047804;28;20045;-87
2023/09/18 08:00:06;;;;;;;4.75;3.47;;;;;;;;;;5050686;28;20377;-87
2023/09/18 08:02:32;;;;;;;4.53;2.78;;;;;;;;;;5084032;28;20051;-83
2023/09/18 08:04:57;;;;;;;4.75;3.58;;;;;;;;;;5045662;28;20056;-83
2023/09/18 08:07:23;;;;;;;5.32;3.25;;;;;;;;;;5058993;28;20037;-81
2023/09/18 08:09:49;;;;;;;4.13;2.90;;;;;;;;;;5050686;28;20039;-80
2023/09/18 08:12:14;;;;;;;4.10;2.95;;;;;;;;;;5049462;28;20051;-80
2023/09/18 08:14:39;;;;;;;7.40;4.68;;;;;;;;;;5048303;28;20155;-79
2023/09/18 08:17:07;;;;;;;4.55;2.88;;;;;;;;;;5050879;28;20078;-79
2023/09/18 08:19:33;;;;;;;6.05;3.38;;;;;;;;;;5052413;28;20461;-78
2023/09/18 08:22:01;;;;;;;3.92;2.78;;;;;;;;;;5052165;28;20056;-80
2023/09/18 08:24:27;;;;;;;4.95;3.63;;;;;;;;;;5052032;28;20029;-82
2023/09/18 08:26:53;;;;;;;4.57;2.58;;;;;;;;;;5054015;28;20031;-79
2023/09/18 08:29:19;;;;;;;4.72;2.92;;;;;;;;;;5047734;28;20048;-79
2023/09/18 08:31:44;;;;;;;4.90;3.10;;;;;;;;;;5051920;28;20033;-82
2023/09/18 08:34:10;;;;;;;7.38;2.67;;;;;;;;;;5052622;28;20036;-79
2023/09/18 08:36:35;;;;;;;5.13;3.50;;;;;;;;;;5045538;28;20041;-80
2023/09/18 08:39:01;;;;;;;6.72;3.42;;;;;;;;;;5048596;28;20056;-81
2023/09/18 08:41:31;;;;;;;4.60;3.30;;;;;;;;;;5044180;28;20409;-79
2023/09/18 08:44:00;;;;;;;3.05;2.33;;;;;;;;;;5048225;28;20108;-78
2023/09/18 08:46:26;;;;;;;4.25;2.75;;;;;;;;;;5047866;28;20047;-79
2023/09/18 08:48:53;;;;;;;5.05;2.83;;;;;;;;;;5042891;28;20029;-79
2023/09/18 08:51:21;;;;;;;2.88;1.73;;;;;;;;;;5043856;28;20029;-80
2023/09/18 08:53:46;;;;;;;4.15;2.50;;;;;;;;;;5045851;28;20044;-80
2023/09/18 08:56:13;;;;;;;4.55;2.95;;;;;;;;;;5048318;28;20021;-79
2023/09/18 08:58:42;;;;;;;2.53;2.33;;;;;;;;;;5046610;28;20477;-78
2023/09/18 09:01:09;;;;;;;2.67;1.92;;;;;;;;;;5054681;28;20028;-81
2023/09/18 09:03:42;;;;;;;3.17;2.20;;;;;;;;;;5052520;28;20374;-79
2023/09/18 09:06:09;;;;;;;2.90;2.13;;;;;;;;;;5049180;28;20028;-81
2023/09/18 09:08:35;;;;;;;3.38;2.50;;;;;;;;;;5049998;28;20781;-83
2023/09/18 09:11:01;;;;;;;11.10;3.45;;;;;;;;;;5049045;28;20021;-83
2023/09/18 09:13:27;;;;;;;3.00;2.03;;;;;;;;;;5056192;28;20020;-84
2023/09/18 09:15:58;;;;;;;4.90;2.53;;;;;;;;;;5049879;28;20021;-82
2023/09/18 09:18:24;;;;;;;3.67;2.25;;;;;;;;;;5064350;28;20017;-84
2023/09/18 09:20:57;;;;;;;3.60;1.67;;;;;;;;;;5053210;28;20024;-83
2023/09/18 09:23:23;;;;;;;3.80;2.78;;;;;;;;;;5047798;28;20485;-85
2023/09/18 09:25:49;;;;;;;3.38;2.28;;;;;;;;;;5054025;28;20151;-87
2023/09/18 09:28:16;;;;;;;3.85;2.22;;;;;;;;;;5049433;28;20099;-89
2023/09/18 09:30:41;;;;;;;3.30;1.75;;;;;;;;;;5052473;28;20044;-84
2023/09/18 09:33:07;;;;;;;4.20;2.58;;;;;;;;;;5047282;28;20123;-85
2023/09/18 09:35:35;;;;;;;3.22;2.15;;;;;;;;;;5056906;28;20024;-86
2023/09/18 09:38:27;;;;;;;2.22;1.63;;;;;;;;;;5052469;28;20468;-85
2023/09/18 09:40:53;;;;;;;3.90;1.92;;;;;;;;;;5049663;28;20032;-87
2023/09/18 09:43:19;;;;;;;2.25;1.65;;;;;;;;;;5047175;28;20032;-87
2023/09/18 09:45:46;;;;;;;2.47;2.22;;;;;;;;;;5055422;28;20123;-87
2023/09/18 09:48:11;;;;;;;3.63;2.00;;;;;;;;;;5053724;28;20025;-88
2023/09/18 09:50:48;;;;;;;4.32;1.95;;;;;;;;;;5057049;28;20473;-84
2023/09/18 09:53:14;;;;;;;2.85;1.92;;;;;;;;;;5049207;28;20038;-84
2023/09/18 09:55:40;;;;;;;2.30;1.63;;;;;;;;;;5051677;28;20036;-85
2023/09/18 09:58:07;;;;;;;2.78;1.63;;;;;;;;;;5057721;28;20465;-86
2023/09/18 10:00:49;;;;;;;3.80;2.17;;;;;;;;;;5049486;28;20462;-86
2023/09/18 10:03:20;;;;;;;2.45;1.75;;;;;;;;;;5061141;28;20082;-86
2023/09/18 10:05:53;;;;;;;2.08;1.55;;;;;;;;;;5062486;28;20073;-85
2023/09/18 10:08:26;;;;;;;2.45;1.98;;;;;;;;;;5062459;28;20074;-85
2023/09/18 10:10:54;;;;;;;1.35;1.25;;;;;;;;;;5050572;28;20028;-86
2023/09/18 10:13:40;;;;;;;2.95;2.13;;;;;;;;;;5064357;28;20094;-90
2023/09/18 10:16:10;;;;;;;2.13;1.58;;;;;;;;;;5065257;28;20025;-87
2023/09/18 10:18:59;;;;;;;3.78;1.90;;;;;;;;;;5060738;28;20079;-86
2023/09/18 10:21:37;;;;;;;;;;;;;;;;;;5066145;28;20028;-88
2023/09/18 10:24:12;;;;;;;3.30;1.80;;;;;;;;;;5060446;28;20020;-84
2023/09/18 10:26:46;;;;;;;3.08;2.10;;;;;;;;;;5060485;28;20047;-87
2023/09/18 10:29:18;;;;;;;2.67;1.75;;;;;;;;;;5056548;28;20192;-88
2023/09/18 10:31:45;;;;;;;3.75;2.42;;;;;;;;;;5065756;28;20037;-87
2023/09/18 10:34:13;;;;;;;8.70;2.58;;;;;;;;;;5063583;28;20028;-85
2023/09/18 10:36:41;;;;;;;1.73;1.42;;;;;;;;;;5058821;28;20043;-86
2023/09/18 10:39:10;;;;;;;2.67;1.70;;;;;;;;;;5057360;28;20037;-86
2023/09/18 10:41:37;;;;;;;5.10;2.50;;;;;;;;;;5054290;28;20469;-83
2023/09/18 10:44:06;;;;;;;2.40;1.67;;;;;;;;;;5063541;28;20500;-88
2023/09/18 10:46:32;;;;;;;2.97;1.60;;;;;;;;;;5067550;28;20046;-88
2023/09/18 10:48:59;;;;;;;3.25;2.38;;;;;;;;;;5061569;28;20059;-87
2023/09/18 10:51:26;;;;;;;2.63;1.63;;;;;;;;;;5057485;28;20036;-86
2023/09/18 10:53:54;;;;;;;2.10;1.48;;;;;;;;;;5064021;28;20170;-89
2023/09/18 10:56:20;;;;;;;3.83;2.42;;;;;;;;;;5061624;28;20020;-85
2023/09/18 10:58:46;;;;;;;2.00;1.60;;;;;;;;;;5067614;28;20016;-87
2023/09/18 11:01:12;;;;;;;4.43;2.15;;;;;;;;;;5060267;28;20055;-87
2023/09/18 11:03:50;;;;;;;2.95;1.85;;;;;;;;;;5060635;28;20024;-87
2023/09/18 11:06:28;;;;;;;4.13;2.70;;;;;;;;;;5063596;28;20487;-86
2023/09/18 11:09:04;;;;;;;2.22;1.67;;;;;;;;;;5063618;28;20129;-92
2023/09/18 11:11:37;;;;;;;2.50;1.92;;;;;;;;;;5057906;28;20029;-88
2023/09/18 11:14:14;;;;;;;2.70;1.92;;;;;;;;;;5058655;28;20033;-88
2023/09/18 11:16:40;;;;;;;3.55;1.67;;;;;;;;;;5061696;28;20033;-87
2023/09/18 11:19:16;;;;;;;2.15;1.45;;;;;;;;;;5060124;28;20043;-89
2023/09/18 11:21:42;;;;;;;3.38;1.98;;;;;;;;;;5058838;28;20040;-87
2023/09/18 11:24:41;;;;;;;2.97;1.98;;;;;;;;;;5065497;28;20029;-90
2023/09/18 11:27:50;;;;;;;2.58;1.77;;;;;;;;;;5043253;28;20032;-87
2023/09/18 11:30:17;;;;;;;;;;;;;;;;;;5061456;28;20040;-84
2023/09/18 11:32:44;;;;;;;2.95;1.50;;;;;;;;;;5066217;28;20382;-91
2023/09/18 11:35:12;;;;;;;2.45;1.73;;;;;;;;;;5062127;28;20366;-89
2023/09/18 11:37:38;;;;;;;3.60;1.92;;;;;;;;;;5063218;28;20020;-84
2023/09/18 11:40:08;;;;;;;2.25;1.67;;;;;;;;;;5061799;28;20139;-88
2023/09/18 11:42:33;;;;;;;3.13;2.10;;;;;;;;;;5058890;28;20096;-88
2023/09/18 11:45:26;;;;;;;2.60;1.75;;;;;;;;;;5066262;28;20059;-89
2023/09/18 11:47:54;;;;;;;2.95;1.90;;;;;;;;;;5061152;28;20384;-88
2023/09/18 11:50:27;;;;;;;3.95;2.72;;;;;;;;;;5062665;28;20029;-90
2023/09/18 11:52:53;;;;;;;3.05;1.77;;;;;;;;;;5058004;28;20037;-88
2023/09/18 11:55:22;;;;;;;3.30;1.98;;;;;;;;;;5064263;28;20024;-87
2023/09/18 11:57:56;;;;;;;2.25;1.38;;;;;;;;;;5065092;28;20147;-88
2023/09/18 12:00:45;;;;;;;1.65;1.42;;;;;;;;;;5072157;28;20126;-90
2023/09/18 12:03:51;;;;;;;3.88;2.28;;;;;;;;;;5067437;28;20032;-89
2023/09/18 12:06:17;;;;;;;2.55;1.83;;;;;;;;;;5055504;28;20036;-88
2023/09/18 12:08:42;;;;;;;2.13;1.55;;;;;;;;;;5060442;28;20025;-89
2023/09/18 12:11:08;;;;;;;2.70;1.77;;;;;;;;;;5066049;28;20082;-87
2023/09/18 12:13:34;;;;;;;3.00;1.40;;;;;;;;;;5065790;28;20021;-90
2023/09/18 12:16:01;;;;;;;1.58;1.30;;;;;;;;;;5063856;28;20024;-89
2023/09/18 12:18:29;;;;;;;4.03;2.35;;;;;;;;;;5064097;28;20031;-88
2023/09/18 12:20:56;;;;;;;5.20;2.30;;;;;;;;;;5071584;28;20534;-86
2023/09/18 12:23:22;;;;;;;2.60;1.40;;;;;;;;;;5054252;28;20020;-87
2023/09/18 12:26:00;;;;;;;2.08;1.33;;;;;;;;;;5061223;28;20460;-87
2023/09/18 12:28:28;;;;;;;1.90;1.50;;;;;;;;;;5067967;28;20093;-88
2023/09/18 12:30:56;;;;;;;3.53;2.08;;;;;;;;;;5058619;28;20051;-88
2023/09/18 12:33:22;;;;;;;3.13;2.08;;;;;;;;;;5096731;28;20087;-86
2023/09/18 12:35:49;;;;;;;5.35;2.17;;;;;;;;;;5054995;28;20029;-85
2023/09/18 12:38:22;;;;;;;2.45;2.00;;;;;;;;;;5065951;28;20037;-82
2023/09/18 12:40:49;;;;;;;1.73;1.40;;;;;;;;;;5061872;28;20029;-84
2023/09/18 12:43:15;;;;;;;2.35;1.70;;;;;;;;;;5049998;28;20047;-83
2023/09/18 12:45:41;;;;;;;2.95;1.65;;;;;;;;;;5048272;28;20032;-84
2023/09/18 12:48:06;;;;;;;3.90;2.05;;;;;;;;;;5057871;28;20502;-83
2023/09/18 12:50:34;;;;;;;2.03;1.58;;;;;;;;;;5067092;28;20028;-82
2023/09/18 12:53:10;;;;;;;6.28;1.67;;;;;;;;;;5053623;28;20128;-86
2023/09/18 12:55:36;;;;;;;2.63;1.52;;;;;;;;;;5060006;28;20041;-86
2023/09/18 12:58:07;;;;;;;6.68;1.73;;;;;;;;;;5064248;28;20017;-87
2023/09/18 13:00:33;;;;;;;1.77;1.23;;;;;;;;;;5056565;28;20032;-87
2023/09/18 13:02:58;;;;;;;2.47;1.50;;;;;;;;;;5064894;28;20021;-87
2023/09/18 13:05:32;;;;;;;2.60;1.73;;;;;;;;;;5062658;28;20075;-86
2023/09/18 13:08:05;;;;;;;3.22;1.60;;;;;;;;;;5053282;28;20029;-84
2023/09/18 13:10:45;;;;;;;2.25;1.70;;;;;;;;;;5055814;28;20037;-86
2023/09/18 13:13:19;;;;;;;2.97;1.27;;;;;;;;;;5049876;28;20090;-84
2023/09/18 13:15:47;;;;;;;2.67;1.63;;;;;;;;;;5048356;28;20017;-85
2023/09/18 13:18:13;;;;;;;2.35;1.92;;;;;;;;;;5050863;28;20095;-86
2023/09/18 13:20:42;;;;;;;3.05;1.70;;;;;;;;;;5052847;28;20108;-88
2023/09/18 13:23:09;;;;;;;1.88;1.48;;;;;;;;;;5056689;28;20033;-85
2023/09/18 13:25:45;;;;;;;4.03;2.00;;;;;;;;;;5058687;28;20037;-84
2023/09/18 13:28:12;;;;;;;3.58;1.85;;;;;;;;;;5065701;28;20024;-83
2023/09/18 13:30:39;;;;;;;2.92;1.92;;;;;;;;;;5064004;28;20033;-84
2023/09/18 13:33:12;;;;;;;3.45;1.77;;;;;;;;;;5053097;28;20021;-83
2023/09/18 13:35:42;;;;;;;3.70;1.50;;;;;;;;;;5064715;28;20094;-85
2023/09/18 13:38:08;;;;;;;;;;;;;;;;;;5055572;28;20367;-83
2023/09/18 13:40:38;;;;;;;6.05;1.98;;;;;;;;;;5074550;28;19931;-85
2023/09/18 13:43:04;;;;;;;3.35;1.67;;;;;;;;;;5061632;28;20388;-83
2023/09/18 13:45:31;;;;;;;2.72;1.60;;;;;;;;;;5056207;28;20027;-83
2023/09/18 13:47:56;;;;;;;2.58;1.55;;;;;;;;;;5063222;28;20040;-83
2023/09/18 13:50:22;;;;;;;1.98;1.65;;;;;;;;;;5058378;28;20021;-82
2023/09/18 13:52:47;;;;;;;2.53;1.33;;;;;;;;;;5063608;28;21477;-82
2023/09/18 13:55:12;;;;;;;1.70;1.38;;;;;;;;;;5056536;28;20369;-82
2023/09/18 14:00:22;;;;;;;2.45;1.67;;;;;;;;;;5060970;28;20040;-83
2023/09/18 14:02:47;;;;;;;3.90;1.90;;;;;;;;;;5057225;28;20013;-82
2023/09/18 14:05:13;;;;;;;1.73;1.52;;;;;;;;;;5050041;28;20132;-82
2023/09/18 14:07:38;;;;;;;3.60;1.75;;;;;;;;;;5048473;28;20066;-86
2023/09/18 14:10:10;;;;;;;2.97;1.80;;;;;;;;;;5043954;28;20120;-86
2023/09/18 14:12:38;;;;;;;3.10;1.92;;;;;;;;;;5045972;28;20029;-87
2023/09/18 14:15:07;;;;;;;4.30;2.22;;;;;;;;;;5057857;28;20024;-84
2023/09/18 14:17:33;;;;;;;2.83;2.03;;;;;;;;;;5047853;28;20036;-86
2023/09/18 14:19:59;;;;;;;2.08;1.73;;;;;;;;;;5050855;28;20036;-83
2023/09/18 14:22:25;;;;;;;3.00;1.77;;;;;;;;;;5053749;28;20389;-84
2023/09/18 14:24:50;;;;;;;2.50;1.52;;;;;;;;;;5049962;28;20036;-85
2023/09/18 14:27:16;;;;;;;3.13;2.25;;;;;;;;;;5047536;28;20033;-85
2023/09/18 14:29:41;;;;;;;2.70;1.73;;;;;;;;;;5056175;28;20037;-85
2023/09/18 14:32:08;;;;;;;2.60;1.67;;;;;;;;;;5059806;28;20103;-82
2023/09/18 14:34:35;;;;;;;2.92;1.88;;;;;;;;;;5059540;28;20107;-83
2023/09/18 14:37:03;;;;;;;2.28;1.98;;;;;;;;;;5050198;28;20029;-82
2023/09/18 14:39:34;;;;;;;2.13;1.63;;;;;;;;;;5059634;28;20040;-83
2023/09/18 14:42:00;;;;;;;2.75;1.90;;;;;;;;;;5062377;28;20024;-84
2023/09/18 14:44:27;;;;;;;2.72;1.90;;;;;;;;;;5058281;28;20052;-84
2023/09/18 14:46:53;;;;;;;2.92;1.45;;;;;;;;;;5061038;28;20520;-84
2023/09/18 14:49:19;;;;;;;2.67;1.67;;;;;;;;;;5054110;28;20400;-83
2023/09/18 14:51:45;;;;;;;2.38;1.55;;;;;;;;;;5054072;28;20029;-85
2023/09/18 14:54:11;;;;;;;2.03;1.60;;;;;;;;;;5053528;28;20105;-83
2023/09/18 14:56:36;;;;;;;2.47;1.50;;;;;;;;;;5056084;28;20033;-83
2023/09/18 14:59:03;;;;;;;2.40;1.70;;;;;;;;;;5055375;28;20027;-85
2023/09/18 15:01:28;;;;;;;2.65;2.20;;;;;;;;;;5049374;28;20132;-84
2023/09/18 15:03:54;;;;;;;2.38;1.70;;;;;;;;;;5061346;28;20029;-84
2023/09/18 15:06:20;;;;;;;4.95;1.60;;;;;;;;;;5053630;28;20060;-85
2023/09/18 15:08:46;;;;;;;3.20;2.03;;;;;;;;;;5059053;28;20060;-86
2023/09/18 15:11:12;;;;;;;7.18;2.40;;;;;;;;;;5059825;28;20043;-86
2023/09/18 15:13:38;;;;;;;2.33;1.75;;;;;;;;;;5062502;28;20027;-87
2023/09/18 15:16:05;;;;;;;1.77;1.33;;;;;;;;;;5047821;28;20033;-87
2023/09/18 15:18:31;;;;;;;2.42;2.03;;;;;;;;;;5063607;28;20124;-87
2023/09/18 15:20:56;;;;;;;2.88;1.95;;;;;;;;;;5067019;28;20097;-86
2023/09/18 15:23:23;;;;;;;2.75;1.90;;;;;;;;;;5057158;28;20145;-86
2023/09/18 15:25:55;;;;;;;2.35;1.65;;;;;;;;;;5055715;28;20416;-86
2023/09/18 15:28:24;;;;;;;2.25;1.55;;;;;;;;;;5069463;28;20020;-85
2023/09/18 15:30:53;;;;;;;2.28;1.60;;;;;;;;;;5055759;28;20025;-85
2023/09/18 15:33:19;;;;;;;2.25;1.92;;;;;;;;;;5056525;28;20024;-83
2023/09/18 15:35:44;;;;;;;2.33;1.40;;;;;;;;;;5059749;28;20070;-84
2023/09/18 15:38:10;;;;;;;2.13;1.48;;;;;;;;;;5065083;28;20044;-83
2023/09/18 15:40:36;;;;;;;1.50;1.30;;;;;;;;;;5067054;28;20396;-84
2023/09/18 15:43:02;;;;;;;1.42;1.30;;;;;;;;;;5056283;28;20024;-85
2023/09/18 15:45:27;;;;;;;1.90;1.48;;;;;;;;;;5063227;28;20060;-84
2023/09/18 15:47:53;;;;;;;2.33;1.60;;;;;;;;;;5053013;28;20025;-83
2023/09/18 15:50:18;;;;;;;1.45;1.30;;;;;;;;;;5052649;28;20020;-84
2023/09/18 15:52:44;;;;;;;2.08;1.70;;;;;;;;;;5051687;28;20045;-84
2023/09/18 15:55:10;;;;;;;1.65;1.35;;;;;;;;;;5064988;28;20037;-85
2023/09/18 15:57:37;;;;;;;1.30;1.15;;;;;;;;;;5061643;28;20035;-84
2023/09/18 16:00:04;;;;;;;2.80;1.92;;;;;;;;;;5058963;28;20495;-85
2023/09/18 16:02:36;;;;;;;2.05;1.52;;;;;;;;;;5054292;28;20029;-85
2023/09/18 16:05:05;;;;;;;3.35;2.22;;;;;;;;;;5054299;28;20028;-85
2023/09/18 16:07:33;;;;;;;1.95;1.45;;;;;;;;;;5058152;28;20041;-84
2023/09/18 16:09:59;;;;;;;2.45;1.90;;;;;;;;;;5060306;28;20020;-86
2023/09/18 16:12:24;;;;;;;2.58;1.77;;;;;;;;;;5055083;28;20078;-84
2023/09/18 16:14:50;;;;;;;1.75;1.40;;;;;;;;;;5060805;28;20044;-83
2023/09/18 16:17:16;;;;;;;1.95;1.58;;;;;;;;;;5049397;28;20443;-84
2023/09/18 16:19:45;;;;;;;2.50;1.73;;;;;;;;;;5058603;28;20435;-86
2023/09/18 16:22:15;;;;;;;1.75;1.55;;;;;;;;;;5050416;28;20512;-89
2023/09/18 16:24:42;;;;;;;2.67;1.27;;;;;;;;;;5057506;28;20029;-87
2023/09/18 16:27:08;;;;;;;1.92;1.25;;;;;;;;;;5053948;28;20044;-88
2023/09/18 16:29:33;;;;;;;2.63;2.00;;;;;;;;;;5058087;28;20040;-83
2023/09/18 16:31:58;;;;;;;2.20;1.15;;;;;;;;;;5049903;28;20044;-87
2023/09/18 16:34:24;;;;;;;2.15;1.70;;;;;;;;;;5059528;28;20023;-85
2023/09/18 16:36:51;;;;;;;1.95;1.65;;;;;;;;;;5058113;28;20405;-85
2023/09/18 16:39:16;;;;;;;2.92;1.90;;;;;;;;;;5051520;28;20029;-85
2023/09/18 16:41:43;;;;;;;2.33;1.65;;;;;;;;;;5057358;28;20102;-87
2023/09/18 16:44:09;;;;;;;2.22;2.03;;;;;;;;;;5057403;28;20033;-85
2023/09/18 16:46:35;;;;;;;2.78;1.85;;;;;;;;;;5049106;28;20523;-86
2023/09/18 16:49:01;;;;;;;2.08;1.38;;;;;;;;;;5055218;28;20029;-88
2023/09/18 16:51:27;;;;;;;1.48;1.13;;;;;;;;;;5064876;28;20650;-85
2023/09/18 16:53:53;;;;;;;2.15;1.45;;;;;;;;;;5054963;28;20041;-84
2023/09/18 16:56:18;;;;;;;2.30;1.23;;;;;;;;;;5051905;28;20017;-86
2023/09/18 16:58:46;;;;;;;1.85;1.48;;;;;;;;;;5062009;28;20073;-83
